Estación Meteorológica Peña el Pijo (Robertgarden) [ 05/25/18 12:59:59 CEST ]

Fecha Hora Presion(HPa) Temp (°C) Humedad % Rocio (°C) Viento ( m/s) Direccion Lluvia 1Hora(mm) Lluvia 24H(mm) LLuvia Total(mm)
2018-May-20 01:01:27 1008.000 8.4 75 4.2         215.48
2018-May-20 02:01:33 1007.900 7.2 77 3.4         215.48
2018-May-20 03:05:11 1007.400 6.7 80 3.5         215.48
2018-May-20 04:01:34 1007.100 6.1 81 3.1         215.48
2018-May-20 05:01:49 1006.800 5.4 82 2.5         215.48
2018-May-20 06:01:11 1006.700 5.3 83 2.6         215.48
2018-May-20 07:01:45 1006.600 4.8 83 2.1         215.48
2018-May-20 08:01:40 1006.800 6.9 86 4.7         215.48
2018-May-20 09:01:56 1006.700 12.6 81 9.4         215.48
2018-May-20 10:02:02 1006.600 17.5 59 9.4         215.48
2018-May-20 11:02:07 1006.400 20.4 44 7.7         215.48
2018-May-20 12:01:44 1006.300 22.3 35 6.0         215.48
2018-May-20 13:01:36 1006.000 23.9 33 6.6         215.48
2018-May-20 14:01:48 1005.300 22.5 34 5.8         215.48
2018-May-20 15:01:46 1005.000 19.6 39 5.2         215.48
2018-May-20 16:02:02 1004.600 19.0 42 5.8         215.48
2018-May-20 17:01:42 1004.000 19.5 47 7.9 0.3 NNW     215.48
2018-May-20 18:01:55 1003.900 14.1 61 6.7 2.3 NNE 0.51 0.51 216.00
2018-May-20 19:01:46 1004.000 13.4 70 8.1       0.51 216.00
2018-May-20 20:01:57 1004.100 14.1 68 8.2       0.51 216.00
2018-May-20 21:01:39 1004.600 13.6 69 8.0       0.51 216.00
2018-May-20 22:01:53 1005.300 12.4 70 7.1       0.51 216.00
2018-May-20 23:01:39 1005.800 11.3 73 6.6       0.51 216.00

Temperatura Máxima:23°    Temperatura Mínima:
Presión Máxima:1008.000 Hpa    Presión Mínima:1003.900 Hpa


Volver